HEGN 020600Z 34012KT CAVOK 30/13 Q1010 NOSIG
From batch tds/metars/production/2022/10/2/h06_m59_metars.cache.csv.gz
Observed at (about 2 hours ago)
Identifier HEGN
HEGN 020500Z 32012KT CAVOK 30/11 Q1010 NOSIG
From batch tds/metars/production/2022/10/2/h05_m24_metars.cache.csv.gz
Observed at (about 3 hours ago)
Identifier HEGN
HEGN 020400Z 31010KT CAVOK 29/11 Q1010 NOSIG
From batch tds/metars/production/2022/10/2/h04_m25_metars.cache.csv.gz
Observed at (about 4 hours ago)
Identifier HEGN
HEGN 020300Z 30010KT CAVOK 29/12 Q1010 NOSIG
From batch tds/metars/production/2022/10/2/h03_m55_metars.cache.csv.gz
Observed at (about 5 hours ago)
Identifier HEGN
HEGN 020100Z 31010KT CAVOK 30/10 Q1010 NOSIG
From batch tds/metars/production/2022/10/2/h01_m29_metars.cache.csv.gz
Observed at (about 7 hours ago)
Identifier HEGN
HEGN 020000Z 30012KT CAVOK 31/11 Q1010 NOSIG
From batch tds/metars/production/2022/10/2/h00_m21_metars.cache.csv.gz
Observed at (about 8 hours ago)
Identifier HEGN
HEGN 012300Z 31011KT CAVOK 32/12 Q1010 NOSIG
From batch tds/metars/production/2022/10/1/h23_m23_metars.cache.csv.gz
Observed at (about 9 hours ago)
Identifier HEGN
HEGN 012200Z 30011KT CAVOK 32/11 Q1010 NOSIG
From batch tds/metars/production/2022/10/1/h22_m22_metars.cache.csv.gz
Observed at (about 10 hours ago)
Identifier HEGN
HEGN 012100Z 31012KT CAVOK 33/12 Q1010 NOSIG
From batch tds/metars/production/2022/10/1/h21_m29_metars.cache.csv.gz
Observed at (about 11 hours ago)
Identifier HEGN
HEGN 012000Z 34014KT CAVOK 34/12 Q1010 NOSIG
From batch tds/metars/production/2022/10/1/h20_m27_metars.cache.csv.gz
Observed at (about 12 hours ago)
Identifier HEGN
HEGN 011900Z 35013KT CAVOK 34/11 Q1010 NOSIG
From batch tds/metars/production/2022/10/1/h19_m51_metars.cache.csv.gz
Observed at (about 13 hours ago)
Identifier HEGN
HEGN 011800Z 34010KT CAVOK 35/12 Q1010 NOSIG
From batch tds/metars/production/2022/10/1/h18_m51_metars.cache.csv.gz
Observed at (about 14 hours ago)
Identifier HEGN
HEGN 011700Z 35006KT CAVOK 33/14 Q1010 NOSIG
From batch tds/metars/production/2022/10/1/h17_m24_metars.cache.csv.gz
Observed at (about 15 hours ago)
Identifier HEGN
HEGN 011600Z 36005KT CAVOK 34/15 Q1010 NOSIG
From batch tds/metars/production/2022/10/1/h16_m29_metars.cache.csv.gz
Observed at (about 16 hours ago)
Identifier HEGN
HEGN 011500Z 36004KT CAVOK 35/16 Q1010 NOSIG
From batch tds/metars/production/2022/10/1/h15_m59_metars.cache.csv.gz
Observed at (about 17 hours ago)
Identifier HEGN
HEGN 011400Z 02006KT CAVOK 38/14 Q1010 NOSIG
From batch tds/metars/production/2022/10/1/h14_m22_metars.cache.csv.gz
Observed at (about 18 hours ago)
Identifier HEGN
HEGN 011300Z 02005KT CAVOK 40/08 Q1010 NOSIG
From batch tds/metars/production/2022/10/1/h13_m52_metars.cache.csv.gz
Observed at (about 19 hours ago)
Identifier HEGN
HEGN 011000Z 36006KT CAVOK 39/11 Q1013 NOSIG
From batch tds/metars/production/2022/10/1/h10_m25_metars.cache.csv.gz
Observed at (about 22 hours ago)
Identifier HEGN
HEGN 010800Z 35011KT CAVOK 35/13 Q1014 NOSIG
From batch tds/metars/production/2022/10/1/h08_m29_metars.cache.csv.gz
Observed at (about 24 hours ago)
Identifier HEGN
HEGN 010700Z 33010KT CAVOK 34/10 Q1014 NOSIG
From batch tds/metars/production/2022/10/1/h07_m29_metars.cache.csv.gz
Observed at (1 day ago)
Identifier HEGN
HEGN 010600Z 30011KT CAVOK 33/09 Q1014 NOSIG
From batch tds/metars/production/2022/10/1/h06_m55_metars.cache.csv.gz
Observed at (1 day ago)
Identifier HEGN
HEGN 010400Z 30007KT CAVOK 29/10 Q1013 NOSIG
From batch tds/metars/production/2022/10/1/h04_m47_metars.cache.csv.gz
Observed at (1 day ago)
Identifier HEGN
HEGN 010300Z 29008KT CAVOK 29/10 Q1013 NOSIG
From batch tds/metars/production/2022/10/1/h03_m52_metars.cache.csv.gz
Observed at (1 day ago)
Identifier HEGN
HEGN 010200Z 30006KT CAVOK 29/13 Q1012 NOSIG
From batch tds/metars/production/2022/10/1/h02_m24_metars.cache.csv.gz
Observed at (1 day ago)
Identifier HEGN
HEGN 302200Z 31005KT CAVOK 31/11 Q1011 NOSIG
From batch tds/metars/production/2022/9/30/h22_m28_metars.cache.csv.gz
Observed at (1 day ago)
Identifier HEGN
HEGN 302000Z 36008KT CAVOK 31/14 Q1010 NOSIG
From batch tds/metars/production/2022/9/30/h20_m24_metars.cache.csv.gz
Observed at (1 day ago)
Identifier HEGN
HEGN 301900Z 35007KT CAVOK 32/14 Q1010 NOSIG
From batch tds/metars/production/2022/9/30/h19_m27_metars.cache.csv.gz
Observed at (1 day ago)
Identifier HEGN
HEGN 301800Z 35008KT CAVOK 33/15 Q1010 NOSIG
From batch tds/metars/production/2022/9/30/h18_m54_metars.cache.csv.gz
Observed at (1 day ago)
Identifier HEGN
HEGN 301700Z 36007KT CAVOK 33/16 Q1009 NOSIG
From batch tds/metars/production/2022/9/30/h17_m49_metars.cache.csv.gz
Observed at (1 day ago)
Identifier HEGN
HEGN 301600Z 35005KT CAVOK 34/16 Q1009 NOSIG
From batch tds/metars/production/2022/9/30/h16_m52_metars.cache.csv.gz
Observed at (1 day ago)
Identifier HEGN
HEGN 301500Z 36005KT CAVOK 35/16 Q1009 NOSIG
From batch tds/metars/production/2022/9/30/h15_m24_metars.cache.csv.gz
Observed at (1 day ago)
Identifier HEGN
HEGN 301400Z 36006KT CAVOK 40/10 Q1009 NOSIG
From batch tds/metars/production/2022/9/30/h14_m27_metars.cache.csv.gz
Observed at (1 day ago)
Identifier HEGN
HEGN 301300Z 36006KT CAVOK 39/11 Q1009 NOSIG
From batch tds/metars/production/2022/9/30/h13_m59_metars.cache.csv.gz
Observed at (2 days ago)
Identifier HEGN
HEGN 301200Z 36005KT CAVOK 39/10 Q1010 NOSIG
From batch tds/metars/production/2022/9/30/h12_m59_metars.cache.csv.gz
Observed at (2 days ago)
Identifier HEGN
HEGN 301100Z 36009KT CAVOK 37/11 Q1010 NOSIG
From batch tds/metars/production/2022/9/30/h11_m59_metars.cache.csv.gz
Observed at (2 days ago)
Identifier HEGN
HEGN 301000Z 36010KT CAVOK 37/10 Q1011 NOSIG
From batch tds/metars/production/2022/9/30/h10_m20_metars.cache.csv.gz
Observed at (2 days ago)
Identifier HEGN
HEGN 300800Z 31010KT CAVOK 35/09 Q1011 NOSIG
From batch tds/metars/production/2022/9/30/h08_m21_metars.cache.csv.gz
Observed at (2 days ago)
Identifier HEGN
HEGN 300700Z 31009KT CAVOK 33/09 Q1011 NOSIG
From batch tds/metars/production/2022/9/30/h07_m29_metars.cache.csv.gz
Observed at (2 days ago)
Identifier HEGN
HEGN 300600Z 31008KT CAVOK 32/10 Q1011 NOSIG
From batch tds/metars/production/2022/9/30/h06_m59_metars.cache.csv.gz
Observed at (2 days ago)
Identifier HEGN
HEGN 300500Z 32007KT CAVOK 29/09 Q1011 NOSIG
From batch tds/metars/production/2022/9/30/h05_m23_metars.cache.csv.gz
Observed at (2 days ago)
Identifier HEGN
HEGN 300400Z 31005KT CAVOK 28/08 Q1010 NOSIG
From batch tds/metars/production/2022/9/30/h04_m50_metars.cache.csv.gz
Observed at (2 days ago)
Identifier HEGN
HEGN 300300Z 31006KT CAVOK 28/09 Q1010 NOSIG
From batch tds/metars/production/2022/9/30/h03_m59_metars.cache.csv.gz
Observed at (2 days ago)
Identifier HEGN
HEGN 300200Z 30007KT CAVOK 29/08 Q1009 NOSIG
From batch tds/metars/production/2022/9/30/h02_m29_metars.cache.csv.gz
Observed at (2 days ago)
Identifier HEGN
HEGN 300100Z 31005KT CAVOK 29/09 Q1009 NOSIG
From batch tds/metars/production/2022/9/30/h01_m27_metars.cache.csv.gz
Observed at (2 days ago)
Identifier HEGN
HEGN 292300Z 00000KT CAVOK 31/11 Q1009
From batch tds/metars/production/2022/9/29/h23_m29_metars.cache.csv.gz
Observed at (2 days ago)
Identifier HEGN
HEGN 292100Z 00000KT CAVOK 32/10 Q1009 NOSIG
From batch tds/metars/production/2022/9/29/h21_m51_metars.cache.csv.gz
Observed at (2 days ago)
Identifier HEGN
HEGN 292000Z 00000KT CAVOK 30/18 Q1009 NOSIG
From batch tds/metars/production/2022/9/29/h20_m23_metars.cache.csv.gz
Observed at (2 days ago)
Identifier HEGN
HEGN 291900Z 00000KT CAVOK 30/19 Q1009 NOSIG
From batch tds/metars/production/2022/9/29/h19_m59_metars.cache.csv.gz
Observed at (3 days ago)
Identifier HEGN
HEGN 291700Z 35007KT CAVOK 34/13 Q1008 NOSIG
From batch tds/metars/production/2022/9/29/h17_m22_metars.cache.csv.gz
Observed at (3 days ago)
Identifier HEGN
HEGN 291600Z 36006KT CAVOK 35/12 Q1008 NOSIG
From batch tds/metars/production/2022/9/29/h16_m24_metars.cache.csv.gz
Observed at (3 days ago)
Identifier HEGN
talk